Check out our new BloomSky Weather System.

Active alerts


No alerts


Thunder radar  blitzortung!


Rain radar more information rain snow radar


Visit our other weather sites:

Template documentation
and downloads

And another site



Weather Underground History page Text

Daily Summary for May 10, 2017 Units:  English    Metric   Both
« Previous Day
Next Day »
Daily Weekly Monthly Yearly Custom
  High: Low: Average:
Temperature: 82.8 °F 70.5 °F 76.3 °F
Dew Point: 72.0 °F 68.0 °F 69.8 °F
Humidity: 93 % 68 % 81 %
Wind Speed: 17.0 mph 0.0 mph 3.8 mph
Wind Gust: 17.0 mph - -
Wind:- - SE
Pressure: 29.98 in 29.91 in -
Precipitation: 0.00 in    
Historical Graphs
 
 
Tabular Data for May 10, 2017
Time Temperature Dew Point Pressure Wind Wind Speed Wind Gust Humidity Rainfall Rate (Hourly)
00:01 73.6 °F 68.4 °F 29.98 in ESE 5.0 mph 8.0 mph 84 % 0.00 in
00:06 73.8 °F 68.5 °F 29.98 in ESE 5.0 mph 7.0 mph 84 % 0.00 in
00:11 73.6 °F 68.4 °F 29.98 in Calm   8.0 mph 84 % 0.00 in
00:16 73.6 °F 68.7 °F 29.98 in SE 2.0 mph 8.0 mph 85 % 0.00 in
00:21 73.4 °F 68.5 °F 29.98 in South 2.0 mph 8.0 mph 85 % 0.00 in
00:27 73.4 °F 68.5 °F 29.98 in SE 4.0 mph 9.0 mph 85 % 0.00 in
00:32 73.2 °F 68.4 °F 29.98 in ESE 5.0 mph 9.0 mph 85 % 0.00 in
00:37 73.2 °F 68.7 °F 29.98 in ESE 4.0 mph 9.0 mph 86 % 0.00 in
00:42 73.2 °F 68.7 °F 29.98 in SE 2.0 mph 6.0 mph 86 % 0.00 in
00:47 73.2 °F 68.7 °F 29.97 in ESE 5.0 mph 6.0 mph 86 % 0.00 in
00:52 73.2 °F 68.7 °F 29.97 in SE 4.0 mph 6.0 mph 86 % 0.00 in
00:57 73.2 °F 68.7 °F 29.97 in ESE 4.0 mph 6.0 mph 86 % 0.00 in
01:02 73.2 °F 68.7 °F 29.97 in SE 2.0 mph 6.0 mph 86 % 0.00 in
01:07 73.0 °F 68.5 °F 29.97 in East 2.0 mph 6.0 mph 86 % 0.00 in
01:12 73.0 °F 68.9 °F 29.97 in ESE 3.0 mph 6.0 mph 87 % 0.00 in
01:17 72.9 °F 68.7 °F 29.96 in SE 3.0 mph 6.0 mph 87 % 0.00 in
01:22 72.9 °F 68.7 °F 29.96 in ESE 3.0 mph 6.0 mph 87 % 0.00 in
01:27 72.7 °F 68.5 °F 29.96 in SSE 2.0 mph 6.0 mph 87 % 0.00 in
01:32 72.7 °F 68.9 °F 29.96 in SE 4.0 mph 5.0 mph 88 % 0.00 in
01:37 72.5 °F 68.7 °F 29.96 in SE 1.0 mph 5.0 mph 88 % 0.00 in
01:42 72.3 °F 68.5 °F 29.96 in SE 3.0 mph 4.0 mph 88 % 0.00 in
01:47 72.3 °F 68.5 °F 29.96 in ESE 2.0 mph 4.0 mph 88 % 0.00 in
01:52 72.1 °F 68.7 °F 29.95 in ESE 1.0 mph 4.0 mph 89 % 0.00 in
01:57 72.0 °F 68.5 °F 29.95 in ESE 1.0 mph 3.0 mph 89 % 0.00 in
02:02 71.8 °F 68.4 °F 29.94 in Calm   3.0 mph 89 % 0.00 in
02:07 71.6 °F 68.2 °F 29.94 in Calm   2.0 mph 89 % 0.00 in
02:12 71.4 °F 68.4 °F 29.94 in East 2.0 mph 2.0 mph 90 % 0.00 in
02:17 71.4 °F 68.4 °F 29.94 in Calm   2.0 mph 90 % 0.00 in
02:22 71.2 °F 68.2 °F 29.94 in SE 1.0 mph 2.0 mph 90 % 0.00 in
02:27 71.1 °F 68.4 °F 29.93 in Calm   3.0 mph 91 % 0.00 in
02:32 71.1 °F 68.4 °F 29.93 in East 2.0 mph 3.0 mph 91 % 0.00 in
02:37 70.9 °F 68.2 °F 29.93 in Calm   3.0 mph 91 % 0.00 in
02:42 70.9 °F 68.2 °F 29.93 in SE 2.0 mph 2.0 mph 91 % 0.00 in
02:47 70.7 °F 68.0 °F 29.93 in SE 1.0 mph 2.0 mph 91 % 0.00 in
02:52 70.7 °F 68.2 °F 29.93 in Calm   2.0 mph 92 % 0.00 in
02:57 70.5 °F 68.0 °F 29.93 in ESE 1.0 mph 2.0 mph 92 % 0.00 in
03:02 70.5 °F 68.0 °F 29.92 in SE 2.0 mph 4.0 mph 92 % 0.00 in
03:07 70.7 °F 68.2 °F 29.92 in ESE 3.0 mph 5.0 mph 92 % 0.00 in
03:12 70.7 °F 68.2 °F 29.92 in SE 3.0 mph 5.0 mph 92 % 0.00 in
03:17 70.9 °F 68.4 °F 29.92 in SE 1.0 mph 5.0 mph 92 % 0.00 in
03:22 70.9 °F 68.4 °F 29.92 in SE 4.0 mph 5.0 mph 92 % 0.00 in
03:27 70.9 °F 68.4 °F 29.92 in SE 3.0 mph 5.0 mph 92 % 0.00 in
03:32 71.1 °F 68.5 °F 29.92 in SE 3.0 mph 5.0 mph 92 % 0.00 in
03:37 71.1 °F 68.5 °F 29.92 in SE 2.0 mph 8.0 mph 92 % 0.00 in
03:42 71.1 °F 68.5 °F 29.92 in ESE 4.0 mph 8.0 mph 92 % 0.00 in
03:47 71.2 °F 68.7 °F 29.92 in ESE 3.0 mph 8.0 mph 92 % 0.00 in
03:52 71.2 °F 68.7 °F 29.92 in SE 2.0 mph 6.0 mph 92 % 0.00 in
03:53 71.2 °F 68.5 °F 29.92 in ESE 3.0 mph 6.0 mph 91 % 0.00 in
03:58 71.2 °F 68.5 °F 29.91 in ESE 2.0 mph 6.0 mph 91 % 0.00 in
03:59 71.2 °F 68.5 °F 29.91 in East 2.0 mph 6.0 mph 91 % 0.00 in
04:04 71.2 °F 68.5 °F 29.92 in SE 2.0 mph 6.0 mph 91 % 0.00 in
04:09 71.2 °F 68.5 °F 29.91 in ESE 4.0 mph 5.0 mph 91 % 0.00 in
04:14 71.1 °F 68.5 °F 29.91 in ESE 2.0 mph 5.0 mph 92 % 0.00 in
04:19 71.1 °F 68.5 °F 29.91 in ESE 2.0 mph 5.0 mph 92 % 0.00 in
04:24 71.1 °F 68.5 °F 29.91 in SE 3.0 mph 7.0 mph 92 % 0.00 in
04:29 71.1 °F 68.5 °F 29.91 in SE 3.0 mph 7.0 mph 92 % 0.00 in
04:34 71.1 °F 68.5 °F 29.91 in ESE 2.0 mph 7.0 mph 92 % 0.00 in
04:39 71.1 °F 68.5 °F 29.91 in Calm   6.0 mph 92 % 0.00 in
04:44 71.1 °F 68.5 °F 29.91 in Calm   4.0 mph 92 % 0.00 in
04:49 71.1 °F 68.5 °F 29.91 in ESE 2.0 mph 4.0 mph 92 % 0.00 in
04:54 71.1 °F 68.5 °F 29.91 in Calm   4.0 mph 92 % 0.00 in
04:59 71.1 °F 68.5 °F 29.91 in ESE 1.0 mph 4.0 mph 92 % 0.00 in
05:04 70.9 °F 68.4 °F 29.91 in ESE 1.0 mph 3.0 mph 92 % 0.00 in
05:09 70.9 °F 68.4 °F 29.91 in SE 1.0 mph 2.0 mph 92 % 0.00 in
05:14 70.7 °F 68.2 °F 29.91 in Calm   3.0 mph 92 % 0.00 in
05:19 70.5 °F 68.0 °F 29.91 in Calm   3.0 mph 92 % 0.00 in
05:24 70.5 °F 68.4 °F 29.91 in Calm   3.0 mph 93 % 0.00 in
05:29 70.5 °F 68.4 °F 29.91 in Calm   2.0 mph 93 % 0.00 in
05:34 70.5 °F 68.4 °F 29.92 in Calm   2.0 mph 93 % 0.00 in
05:39 70.7 °F 68.5 °F 29.91 in SE 1.0 mph 2.0 mph 93 % 0.00 in
05:44 70.9 °F 68.7 °F 29.91 in SE 1.0 mph 4.0 mph 93 % 0.00 in
05:49 70.9 °F 68.7 °F 29.91 in South 2.0 mph 4.0 mph 93 % 0.00 in
05:55 71.1 °F 68.9 °F 29.92 in Calm   4.0 mph 93 % 0.00 in
06:00 71.1 °F 68.9 °F 29.92 in Calm   2.0 mph 93 % 0.00 in
06:05 71.2 °F 69.1 °F 29.92 in ESE 1.0 mph 3.0 mph 93 % 0.00 in
06:10 71.4 °F 69.3 °F 29.92 in SE 2.0 mph 4.0 mph 93 % 0.00 in
06:15 71.4 °F 69.3 °F 29.92 in SE 1.0 mph 4.0 mph 93 % 0.00 in
06:20 71.4 °F 69.3 °F 29.92 in ESE 2.0 mph 4.0 mph 93 % 0.00 in
06:25 71.6 °F 69.4 °F 29.93 in SE 1.0 mph 4.0 mph 93 % 0.00 in
06:30 71.8 °F 69.3 °F 29.93 in Calm   5.0 mph 92 % 0.00 in
06:35 71.6 °F 69.1 °F 29.93 in Calm   5.0 mph 92 % 0.00 in
06:40 71.6 °F 69.1 °F 29.94 in ESE 2.0 mph 5.0 mph 92 % 0.00 in
06:45 71.8 °F 69.3 °F 29.94 in Calm   3.0 mph 92 % 0.00 in
06:50 71.8 °F 69.3 °F 29.94 in East 2.0 mph 3.0 mph 92 % 0.00 in
06:55 72.0 °F 69.4 °F 29.94 in ESE 1.0 mph 3.0 mph 92 % 0.00 in
07:00 72.0 °F 69.4 °F 29.94 in SE 2.0 mph 3.0 mph 92 % 0.00 in
07:05 72.1 °F 69.6 °F 29.94 in Calm   4.0 mph 92 % 0.00 in
07:10 72.1 °F 69.6 °F 29.94 in ESE 1.0 mph 4.0 mph 92 % 0.00 in
07:15 72.3 °F 69.8 °F 29.94 in Calm   4.0 mph 92 % 0.00 in
07:20 72.3 °F 69.8 °F 29.94 in Calm   3.0 mph 92 % 0.00 in
07:25 72.5 °F 70.0 °F 29.95 in ENE 2.0 mph 4.0 mph 92 % 0.00 in
07:30 72.7 °F 70.0 °F 29.95 in ESE 2.0 mph 4.0 mph 91 % 0.00 in
07:35 72.7 °F 70.0 °F 29.95 in East 1.0 mph 4.0 mph 91 % 0.00 in
07:40 72.9 °F 70.2 °F 29.95 in ESE 1.0 mph 3.0 mph 91 % 0.00 in
07:45 73.0 °F 70.3 °F 29.96 in Calm   3.0 mph 91 % 0.00 in
07:50 73.2 °F 70.2 °F 29.96 in SE 1.0 mph 4.0 mph 90 % 0.00 in
07:55 73.4 °F 70.3 °F 29.96 in ESE 3.0 mph 4.0 mph 90 % 0.00 in
08:00 73.6 °F 70.5 °F 29.96 in ESE 3.0 mph 4.0 mph 90 % 0.00 in
08:05 73.6 °F 70.5 °F 29.96 in Calm   4.0 mph 90 % 0.00 in
08:10 73.8 °F 70.7 °F 29.96 in SE 3.0 mph 4.0 mph 90 % 0.00 in
08:15 73.9 °F 70.5 °F 29.96 in East 3.0 mph 6.0 mph 89 % 0.00 in
08:16 73.9 °F 70.5 °F 29.96 in SE 1.0 mph 6.0 mph 89 % 0.00 in
08:21 74.1 °F 70.7 °F 29.96 in SE 3.0 mph 6.0 mph 89 % 0.00 in
08:22 74.1 °F 70.7 °F 29.96 in SE 5.0 mph 6.0 mph 89 % 0.00 in
08:27 74.5 °F 71.1 °F 29.97 in East 4.0 mph 9.0 mph 89 % 0.00 in
08:32 74.7 °F 70.9 °F 29.97 in SSW 3.0 mph 9.0 mph 88 % 0.00 in
08:37 74.8 °F 71.1 °F 29.96 in East 3.0 mph 9.0 mph 88 % 0.00 in
08:42 74.8 °F 70.7 °F 29.97 in SSE 2.0 mph 7.0 mph 87 % 0.00 in
08:47 75.0 °F 70.9 °F 29.97 in South 3.0 mph 8.0 mph 87 % 0.00 in
08:52 75.4 °F 70.9 °F 29.97 in SE 4.0 mph 8.0 mph 86 % 0.00 in
08:57 75.4 °F 70.9 °F 29.97 in SSE 2.0 mph 8.0 mph 86 % 0.00 in
09:02 75.6 °F 70.7 °F 29.97 in SE 2.0 mph 8.0 mph 85 % 0.00 in
09:07 75.7 °F 70.9 °F 29.97 in SSE 5.0 mph 9.0 mph 85 % 0.00 in
09:12 75.7 °F 70.9 °F 29.96 in ESE 4.0 mph 9.0 mph 85 % 0.00 in
09:17 75.9 °F 70.7 °F 29.96 in South 4.0 mph 9.0 mph 84 % 0.00 in
09:22 76.1 °F 70.5 °F 29.96 in ESE 7.0 mph 13.0 mph 83 % 0.00 in
09:27 76.3 °F 70.7 °F 29.96 in SSW 6.0 mph 13.0 mph 83 % 0.00 in
09:32 76.5 °F 70.5 °F 29.96 in South 11.0 mph 13.0 mph 82 % 0.00 in
09:37 76.5 °F 70.2 °F 29.96 in ESE 6.0 mph 14.0 mph 81 % 0.00 in
09:43 76.8 °F 70.2 °F 29.97 in South 5.0 mph 14.0 mph 80 % 0.00 in
09:48 77.0 °F 70.0 °F 29.97 in ESE 9.0 mph 14.0 mph 79 % 0.00 in
09:53 77.2 °F 70.2 °F 29.97 in South 4.0 mph 11.0 mph 79 % 0.00 in
09:58 77.4 °F 70.0 °F 29.97 in South 4.0 mph 11.0 mph 78 % 0.00 in
10:03 77.4 °F 70.0 °F 29.97 in SE 8.0 mph 11.0 mph 78 % 0.00 in
10:08 77.5 °F 70.2 °F 29.97 in South 5.0 mph 11.0 mph 78 % 0.00 in
10:13 77.5 °F 70.2 °F 29.97 in East 8.0 mph 12.0 mph 78 % 0.00 in
10:18 77.7 °F 70.3 °F 29.97 in SE 6.0 mph 12.0 mph 78 % 0.00 in
10:23 77.7 °F 70.0 °F 29.97 in SSE 4.0 mph 12.0 mph 77 % 0.00 in
10:28 77.7 °F 70.3 °F 29.97 in SE 3.0 mph 12.0 mph 78 % 0.00 in
10:33 77.9 °F 70.5 °F 29.97 in ESE 5.0 mph 12.0 mph 78 % 0.00 in
10:38 78.1 °F 70.7 °F 29.97 in SSE 4.0 mph 11.0 mph 78 % 0.00 in
10:43 78.3 °F 70.5 °F 29.97 in ESE 9.0 mph 12.0 mph 77 % 0.00 in
10:48 78.4 °F 70.2 °F 29.98 in SE 3.0 mph 12.0 mph 76 % 0.00 in
10:53 78.4 °F 70.2 °F 29.97 in SSE 3.0 mph 12.0 mph 76 % 0.00 in
10:54 78.4 °F 70.2 °F 29.97 in SE 4.0 mph 12.0 mph 76 % 0.00 in
10:59 78.4 °F 70.2 °F 29.97 in SE 8.0 mph 10.0 mph 76 % 0.00 in
11:04 78.6 °F 70.3 °F 29.97 in SSE 4.0 mph 11.0 mph 76 % 0.00 in
11:09 79.0 °F 70.3 °F 29.98 in SE 7.0 mph 11.0 mph 75 % 0.00 in
11:14 78.8 °F 70.2 °F 29.98 in SW 5.0 mph 11.0 mph 75 % 0.00 in
11:19 78.6 °F 70.3 °F 29.98 in ESE 5.0 mph 11.0 mph 76 % 0.00 in
11:24 78.4 °F 70.2 °F 29.98 in SSE 3.0 mph 11.0 mph 76 % 0.00 in
11:29 78.6 °F 70.3 °F 29.98 in SE 4.0 mph 10.0 mph 76 % 0.00 in
11:34 78.8 °F 70.5 °F 29.98 in SE 3.0 mph 9.0 mph 76 % 0.00 in
11:39 78.8 °F 70.2 °F 29.97 in SSE 4.0 mph 11.0 mph 75 % 0.00 in
11:44 78.8 °F 70.5 °F 29.97 in SE 4.0 mph 11.0 mph 76 % 0.00 in
11:49 78.6 °F 70.0 °F 29.97 in ESE 7.0 mph 11.0 mph 75 % 0.00 in
11:50 78.6 °F 70.0 °F 29.97 in SE 7.0 mph 11.0 mph 75 % 0.00 in
11:55 78.6 °F 70.0 °F 29.97 in SE 4.0 mph 12.0 mph 75 % 0.00 in
12:00 78.8 °F 70.2 °F 29.96 in ESE 6.0 mph 12.0 mph 75 % 0.00 in
12:05 79.2 °F 70.5 °F 29.97 in SE 5.0 mph 12.0 mph 75 % 0.00 in
12:10 79.5 °F 70.9 °F 29.97 in SSE 2.0 mph 9.0 mph 75 % 0.00 in
12:16 80.2 °F 70.9 °F 29.96 in SE 6.0 mph 12.0 mph 73 % 0.00 in
12:21 80.4 °F 70.5 °F 29.96 in SE 4.0 mph 12.0 mph 72 % 0.00 in
12:26 80.4 °F 70.2 °F 29.97 in SSE 12.0 mph 15.0 mph 71 % 0.00 in
12:31 80.1 °F 70.7 °F 29.96 in SSE 11.0 mph 17.0 mph 73 % 0.00 in
12:36 80.2 °F 71.2 °F 29.96 in ESE 11.0 mph 17.0 mph 74 % 0.00 in
12:41 80.8 °F 71.2 °F 29.96 in SSE 4.0 mph 17.0 mph 73 % 0.00 in
12:46 81.7 °F 71.8 °F 29.96 in SE 6.0 mph 13.0 mph 72 % 0.00 in
12:51 81.7 °F 70.9 °F 29.96 in ESE 6.0 mph 14.0 mph 70 % 0.00 in
12:56 81.9 °F 71.1 °F 29.96 in East 5.0 mph 14.0 mph 70 % 0.00 in
13:01 82.2 °F 71.4 °F 29.96 in ESE 7.0 mph 14.0 mph 70 % 0.00 in
13:06 82.6 °F 71.4 °F 29.95 in SE 11.0 mph 11.0 mph 69 % 0.00 in
13:11 82.6 °F 71.4 °F 29.95 in SE 4.0 mph 17.0 mph 69 % 0.00 in
13:16 82.2 °F 70.5 °F 29.96 in ESE 5.0 mph 17.0 mph 68 % 0.00 in
13:21 81.7 °F 70.9 °F 29.96 in ESE 5.0 mph 17.0 mph 70 % 0.00 in
13:26 81.0 °F 71.1 °F 29.96 in SSE 8.0 mph 15.0 mph 72 % 0.00 in
13:31 80.6 °F 71.1 °F 29.96 in SE 4.0 mph 15.0 mph 73 % 0.00 in
13:36 80.2 °F 71.2 °F 29.96 in SE 4.0 mph 15.0 mph 74 % 0.00 in
13:41 80.1 °F 71.1 °F 29.96 in ESE 9.0 mph 12.0 mph 74 % 0.00 in
13:46 79.9 °F 71.2 °F 29.96 in East 5.0 mph 13.0 mph 75 % 0.00 in
13:51 79.7 °F 71.1 °F 29.96 in East 5.0 mph 13.0 mph 75 % 0.00 in
13:56 79.7 °F 71.4 °F 29.96 in ENE 9.0 mph 13.0 mph 76 % 0.00 in
14:01 79.5 °F 71.2 °F 29.96 in SE 3.0 mph 14.0 mph 76 % 0.00 in
14:06 79.5 °F 71.2 °F 29.96 in East 6.0 mph 15.0 mph 76 % 0.00 in
14:11 80.2 °F 72.0 °F 29.96 in East 17.0 mph 17.0 mph 76 % 0.00 in
14:16 80.4 °F 71.4 °F 29.96 in SE 2.0 mph 17.0 mph 74 % 0.00 in
14:21 80.4 °F 71.4 °F 29.96 in SSW 3.0 mph 17.0 mph 74 % 0.00 in
14:26 80.6 °F 71.6 °F 29.96 in East 8.0 mph 17.0 mph 74 % 0.00 in
14:31 80.4 °F 70.9 °F 29.96 in East 6.0 mph 15.0 mph 73 % 0.00 in
14:36 80.4 °F 71.8 °F 29.95 in ESE 7.0 mph 16.0 mph 75 % 0.00 in
14:41 80.6 °F 71.1 °F 29.95 in SSE 3.0 mph 16.0 mph 73 % 0.00 in
14:46 80.4 °F 71.4 °F 29.95 in SE 5.0 mph 16.0 mph 74 % 0.00 in
14:47 80.4 °F 71.8 °F 29.95 in SE 4.0 mph 16.0 mph 75 % 0.00 in
14:52 80.8 °F 71.8 °F 29.95 in ESE 9.0 mph 14.0 mph 74 % 0.00 in
14:57 81.0 °F 72.0 °F 29.95 in SE 7.0 mph 13.0 mph 74 % 0.00 in
15:02 81.1 °F 71.6 °F 29.95 in SSE 4.0 mph 13.0 mph 73 % 0.00 in
15:07 81.3 °F 71.4 °F 29.94 in SSE 4.0 mph 13.0 mph 72 % 0.00 in
15:12 81.5 °F 72.0 °F 29.94 in SSE 5.0 mph 13.0 mph 73 % 0.00 in
15:17 81.9 °F 71.6 °F 29.94 in SSE 3.0 mph 12.0 mph 71 % 0.00 in
15:22 82.0 °F 71.2 °F 29.94 in East 7.0 mph 12.0 mph 70 % 0.00 in
15:27 82.2 °F 71.4 °F 29.94 in SSE 5.0 mph 12.0 mph 70 % 0.00 in
15:32 82.6 °F 71.4 °F 29.94 in SW 2.0 mph 12.0 mph 69 % 0.00 in
15:37 82.6 °F 71.8 °F 29.93 in ESE 7.0 mph 16.0 mph 70 % 0.00 in
15:42 82.6 °F 70.9 °F 29.93 in East 2.0 mph 16.0 mph 68 % 0.00 in
15:47 82.4 °F 71.2 °F 29.93 in SE 4.0 mph 16.0 mph 69 % 0.00 in
15:52 82.8 °F 71.6 °F 29.93 in ESE 3.0 mph 13.0 mph 69 % 0.00 in
15:57 82.6 °F 71.4 °F 29.93 in ESE 7.0 mph 13.0 mph 69 % 0.00 in
16:02 82.0 °F 71.2 °F 29.93 in ESE 9.0 mph 14.0 mph 70 % 0.00 in
16:07 81.9 °F 71.1 °F 29.93 in ESE 9.0 mph 14.0 mph 70 % 0.00 in
16:12 81.5 °F 70.7 °F 29.93 in SE 3.0 mph 14.0 mph 70 % 0.00 in
16:17 81.5 °F 71.2 °F 29.93 in SSE 5.0 mph 14.0 mph 71 % 0.00 in
16:22 81.3 °F 71.1 °F 29.93 in ESE 4.0 mph 14.0 mph 71 % 0.00 in
16:27 81.9 °F 71.6 °F 29.93 in SSE 7.0 mph 14.0 mph 71 % 0.00 in
16:32 82.0 °F 71.2 °F 29.93 in ESE 7.0 mph 13.0 mph 70 % 0.00 in
16:37 81.9 °F 71.1 °F 29.93 in South 7.0 mph 13.0 mph 70 % 0.00 in
16:42 81.3 °F 71.1 °F 29.93 in ESE 6.0 mph 13.0 mph 71 % 0.00 in
16:47 81.1 °F 70.9 °F 29.92 in East 8.0 mph 12.0 mph 71 % 0.00 in
16:52 81.1 °F 70.9 °F 29.92 in ESE 7.0 mph 17.0 mph 71 % 0.00 in
16:57 81.1 °F 70.9 °F 29.92 in ESE 7.0 mph 17.0 mph 71 % 0.00 in
17:02 81.1 °F 70.3 °F 29.92 in SE 3.0 mph 17.0 mph 70 % 0.00 in
17:07 81.0 °F 70.7 °F 29.92 in ENE 6.0 mph 16.0 mph 71 % 0.00 in
17:12 81.1 °F 70.3 °F 29.93 in SE 6.0 mph 16.0 mph 70 % 0.00 in
17:17 81.1 °F 70.9 °F 29.93 in SE 4.0 mph 13.0 mph 71 % 0.00 in
17:22 81.1 °F 70.9 °F 29.92 in SE 6.0 mph 11.0 mph 71 % 0.00 in
17:27 81.1 °F 70.9 °F 29.93 in ESE 5.0 mph 12.0 mph 71 % 0.00 in
17:32 81.0 °F 70.7 °F 29.93 in SSW 6.0 mph 12.0 mph 71 % 0.00 in
17:37 81.1 °F 71.2 °F 29.93 in ESE 6.0 mph 13.0 mph 72 % 0.00 in
17:42 81.1 °F 70.9 °F 29.93 in SE 7.0 mph 13.0 mph 71 % 0.00 in
17:47 80.8 °F 70.2 °F 29.93 in ESE 7.0 mph 15.0 mph 70 % 0.00 in
17:48 80.8 °F 70.2 °F 29.93 in SE 7.0 mph 15.0 mph 70 % 0.00 in
17:53 80.6 °F 70.7 °F 29.93 in East 6.0 mph 15.0 mph 72 % 0.00 in
17:58 80.4 °F 70.5 °F 29.93 in ESE 5.0 mph 15.0 mph 72 % 0.00 in
18:03 80.4 °F 70.5 °F 29.93 in SE 4.0 mph 12.0 mph 72 % 0.00 in
18:08 80.4 °F 70.5 °F 29.92 in SSE 3.0 mph 12.0 mph 72 % 0.00 in
18:13 80.2 °F 70.3 °F 29.92 in SE 3.0 mph 12.0 mph 72 % 0.00 in
18:18 80.2 °F 70.0 °F 29.92 in ESE 6.0 mph 10.0 mph 71 % 0.00 in
18:23 80.2 °F 69.6 °F 29.92 in ENE 4.0 mph 13.0 mph 70 % 0.00 in
18:28 80.2 °F 70.0 °F 29.92 in ENE 10.0 mph 13.0 mph 71 % 0.00 in
18:33 80.2 °F 70.3 °F 29.92 in SSW 1.0 mph 13.0 mph 72 % 0.00 in
18:38 80.1 °F 70.2 °F 29.93 in SE 6.0 mph 12.0 mph 72 % 0.00 in
18:43 80.2 °F 70.3 °F 29.92 in ESE 9.0 mph 10.0 mph 72 % 0.00 in
18:48 80.1 °F 70.2 °F 29.92 in SE 4.0 mph 11.0 mph 72 % 0.00 in
18:53 80.1 °F 69.4 °F 29.92 in SSE 5.0 mph 12.0 mph 70 % 0.00 in
18:58 79.9 °F 69.6 °F 29.92 in SE 6.0 mph 13.0 mph 71 % 0.00 in
19:03 79.5 °F 69.3 °F 29.92 in SE 7.0 mph 13.0 mph 71 % 0.00 in
19:08 79.5 °F 69.3 °F 29.92 in SSE 6.0 mph 13.0 mph 71 % 0.00 in
19:13 79.5 °F 69.3 °F 29.92 in SE 4.0 mph 13.0 mph 71 % 0.00 in
19:18 79.5 °F 69.3 °F 29.92 in SE 8.0 mph 13.0 mph 71 % 0.00 in
19:23 79.3 °F 69.4 °F 29.92 in ESE 7.0 mph 9.0 mph 72 % 0.00 in
19:28 79.3 °F 69.4 °F 29.92 in SE 4.0 mph 10.0 mph 72 % 0.00 in
19:33 79.2 °F 69.3 °F 29.92 in ESE 5.0 mph 10.0 mph 72 % 0.00 in
19:39 79.2 °F 69.8 °F 29.92 in ESE 4.0 mph 10.0 mph 73 % 0.00 in
19:44 79.0 °F 69.6 °F 29.92 in SE 2.0 mph 10.0 mph 73 % 0.00 in
19:49 78.8 °F 69.4 °F 29.92 in SE 3.0 mph 10.0 mph 73 % 0.00 in
19:54 78.8 °F 69.4 °F 29.92 in SE 7.0 mph 10.0 mph 73 % 0.00 in
19:59 78.6 °F 69.3 °F 29.92 in SSE 5.0 mph 11.0 mph 73 % 0.00 in
20:04 78.4 °F 69.4 °F 29.93 in SSE 4.0 mph 11.0 mph 74 % 0.00 in
20:09 78.3 °F 69.3 °F 29.93 in SE 4.0 mph 11.0 mph 74 % 0.00 in
20:14 78.1 °F 69.4 °F 29.93 in SE 4.0 mph 10.0 mph 75 % 0.00 in
20:19 78.1 °F 69.4 °F 29.93 in SE 2.0 mph 10.0 mph 75 % 0.00 in
20:24 78.1 °F 69.4 °F 29.93 in SSE 3.0 mph 9.0 mph 75 % 0.00 in
20:29 77.9 °F 69.8 °F 29.94 in SE 1.0 mph 10.0 mph 76 % 0.00 in
20:34 77.7 °F 69.6 °F 29.94 in SSE 4.0 mph 10.0 mph 76 % 0.00 in
20:39 77.5 °F 69.4 °F 29.94 in South 3.0 mph 10.0 mph 76 % 0.00 in
20:44 77.5 °F 69.8 °F 29.94 in SSE 4.0 mph 11.0 mph 77 % 0.00 in
20:49 77.4 °F 69.6 °F 29.94 in ESE 5.0 mph 11.0 mph 77 % 0.00 in
20:54 77.2 °F 69.4 °F 29.94 in SE 4.0 mph 11.0 mph 77 % 0.00 in
20:59 77.2 °F 69.4 °F 29.94 in SSE 6.0 mph 9.0 mph 77 % 0.00 in
21:04 77.0 °F 69.3 °F 29.94 in South 4.0 mph 10.0 mph 77 % 0.00 in
21:09 76.8 °F 68.7 °F 29.94 in East 3.0 mph 10.0 mph 76 % 0.00 in
21:14 76.6 °F 68.5 °F 29.94 in SE 8.0 mph 10.0 mph 76 % 0.00 in
21:19 76.5 °F 68.4 °F 29.94 in ESE 6.0 mph 10.0 mph 76 % 0.00 in
21:24 76.5 °F 68.4 °F 29.94 in South 5.0 mph 9.0 mph 76 % 0.00 in
21:29 76.5 °F 68.4 °F 29.94 in SSE 3.0 mph 9.0 mph 76 % 0.00 in
21:34 76.3 °F 68.5 °F 29.94 in SE 6.0 mph 11.0 mph 77 % 0.00 in
21:39 76.3 °F 68.9 °F 29.94 in SE 4.0 mph 11.0 mph 78 % 0.00 in
21:44 76.1 °F 68.7 °F 29.94 in SE 4.0 mph 11.0 mph 78 % 0.00 in
21:49 75.9 °F 68.9 °F 29.94 in SE 3.0 mph 10.0 mph 79 % 0.00 in
21:54 75.9 °F 68.9 °F 29.94 in Calm   10.0 mph 79 % 0.00 in
21:59 75.7 °F 69.1 °F 29.95 in South 3.0 mph 9.0 mph 80 % 0.00 in
22:04 75.6 °F 69.3 °F 29.95 in SE 1.0 mph 7.0 mph 81 % 0.00 in
22:09 75.6 °F 69.3 °F 29.95 in SSE 4.0 mph 8.0 mph 81 % 0.00 in
22:14 75.4 °F 69.4 °F 29.95 in South 2.0 mph 8.0 mph 82 % 0.00 in
22:19 75.4 °F 69.4 °F 29.95 in SSE 4.0 mph 8.0 mph 82 % 0.00 in
22:24 75.2 °F 69.6 °F 29.96 in SSE 4.0 mph 6.0 mph 83 % 0.00 in
22:29 75.0 °F 69.8 °F 29.95 in SSE 1.0 mph 5.0 mph 84 % 0.00 in
22:34 75.0 °F 69.8 °F 29.96 in Calm   5.0 mph 84 % 0.00 in
22:39 74.8 °F 69.6 °F 29.96 in South 1.0 mph 5.0 mph 84 % 0.00 in
22:44 74.8 °F 70.0 °F 29.96 in SE 1.0 mph 5.0 mph 85 % 0.00 in
22:49 74.8 °F 70.0 °F 29.96 in SSW 2.0 mph 3.0 mph 85 % 0.00 in
22:54 74.8 °F 70.0 °F 29.96 in SE 3.0 mph 4.0 mph 85 % 0.00 in
22:59 74.7 °F 69.8 °F 29.96 in SSE 3.0 mph 4.0 mph 85 % 0.00 in
23:04 74.7 °F 70.2 °F 29.96 in East 4.0 mph 5.0 mph 86 % 0.00 in
23:13 74.7 °F 70.2 °F 29.96 in SE 1.0 mph 5.0 mph 86 % 0.00 in
23:18 74.8 °F 70.3 °F 29.96 in SE 1.0 mph 5.0 mph 86 % 0.00 in
23:23 74.7 °F 70.2 °F 29.97 in ESE 2.0 mph 5.0 mph 86 % 0.00 in
23:28 74.7 °F 70.5 °F 29.96 in ESE 2.0 mph 5.0 mph 87 % 0.00 in
23:35 74.5 °F 70.3 °F 29.96 in ESE 3.0 mph 4.0 mph 87 % 0.00 in
23:40 74.5 °F 70.3 °F 29.96 in ESE 2.0 mph 5.0 mph 87 % 0.00 in
23:47 74.5 °F 70.3 °F 29.96 in SE 2.0 mph 5.0 mph 87 % 0.00 in
23:52 74.5 °F 70.7 °F 29.96 in SE 4.0 mph 6.0 mph 88 % 0.00 in
23:56 74.5 °F 70.7 °F 29.96 in SSE 3.0 mph 6.0 mph 88 % 0.00 in
Spring, Texas: Villages of Bridgestone
Compliments of Weather Underground - 2.75 mb

Script developed by  Jim McMurry - jmcmurry@mwt.net Adapted for the template by  Wim van der Kuil - Leuven-Template.eu

You find our weather info also at:

UK Metoffice

WeatherCloud

Weather Underground

Mid-South Weather Network

AWEKAS

Citizen Weather Observer Program (CWOP)

HAMweather, WeatherForYou, PWS Weather

Equipment we use:

Weather-station
Davis Vantage Vue

Weather-program
Meteohub

Weather-server
Debian 7.9 x86 (Guest)

Provider
DreamHost

Davis Vantage Vue

Meteohub

Debian 7.9 x86 (Guest)

DreamHost